createdAt,value
2022-10-29T00:01:46.131Z,12.33
2022-10-29T00:04:12.588Z,13.50
2022-10-29T00:06:39.056Z,10.50
2022-10-29T00:11:50.580Z,11.00
2022-10-29T00:14:16.958Z,12.00
2022-10-29T00:16:43.359Z,11.50
2022-10-29T00:19:10.721Z,12.00
2022-10-29T00:21:37.149Z,12.00
2022-10-29T00:26:58.166Z,11.50
2022-10-29T00:29:24.567Z,11.00
2022-10-29T00:31:51.938Z,12.00
2022-10-29T00:34:19.240Z,11.00
2022-10-29T00:36:45.664Z,12.00
2022-10-29T00:41:56.835Z,10.67
2022-10-29T00:44:23.240Z,10.50
2022-10-29T00:46:50.504Z,9.67
2022-10-29T00:49:17.758Z,11.00
2022-10-29T00:51:45.060Z,10.67
2022-10-29T00:56:56.471Z,11.33
2022-10-29T00:59:23.681Z,10.00
2022-10-29T01:01:51.025Z,11.00
2022-10-29T01:04:17.579Z,10.50
2022-10-29T01:06:44.046Z,10.50
2022-10-29T01:12:05.279Z,11.00
2022-10-29T01:14:31.704Z,10.00
2022-10-29T01:16:58.900Z,11.00
2022-10-29T01:19:26.261Z,11.00
2022-10-29T01:21:53.567Z,12.00
2022-10-29T01:27:15.503Z,10.67
2022-10-29T01:29:42.721Z,10.00
2022-10-29T01:32:09.963Z,10.00
2022-10-29T01:34:38.240Z,9.60
2022-10-29T01:37:04.652Z,10.00
2022-10-29T01:42:24.994Z,10.00
2022-10-29T01:44:52.242Z,9.67
2022-10-29T01:47:18.632Z,9.50
2022-10-29T01:49:45.095Z,10.00
2022-10-29T01:52:12.343Z,9.67
2022-10-29T01:57:26.599Z,10.80
2022-10-29T01:59:56.136Z,11.00
2022-10-29T02:02:22.848Z,10.00
2022-10-29T02:04:49.317Z,9.00
2022-10-29T02:07:16.535Z,10.00
2022-10-29T02:12:56.567Z,10.00
2022-10-29T02:15:24.064Z,10.67
2022-10-29T02:17:51.280Z,9.33
2022-10-29T02:20:18.513Z,11.33
2022-10-29T02:22:44.969Z,9.50
2022-10-29T02:27:57.839Z,10.00
2022-10-29T02:30:25.232Z,10.00
2022-10-29T02:32:51.740Z,8.00
2022-10-29T02:35:18.146Z,10.00
2022-10-29T02:37:46.444Z,10.00
2022-10-29T02:43:08.717Z,9.00
2022-10-29T02:45:37.040Z,9.60
2022-10-29T02:48:06.220Z,7.33
2022-10-29T02:50:35.396Z,7.83
2022-10-29T02:53:01.802Z,8.00
2022-10-29T02:58:24.177Z,8.60
2022-10-29T03:00:50.703Z,8.00
2022-10-29T03:03:17.162Z,7.00
2022-10-29T03:05:48.087Z,9.00
2022-10-29T03:08:17.576Z,10.80
2022-10-29T03:13:27.960Z,8.50
2022-10-29T03:15:54.437Z,8.50
2022-10-29T03:18:20.940Z,10.00
2022-10-29T03:20:49.202Z,8.20
2022-10-29T03:23:18.344Z,8.00
2022-10-29T03:28:38.902Z,8.00
2022-10-29T03:31:05.361Z,8.00
2022-10-29T03:33:31.827Z,8.50
2022-10-29T03:35:58.371Z,8.00
2022-10-29T03:38:24.921Z,9.00
2022-10-29T03:43:48.164Z,10.00
2022-10-29T03:46:14.677Z,10.00
2022-10-29T03:48:41.085Z,9.00
2022-10-29T03:51:07.519Z,8.00
2022-10-29T03:53:35.781Z,8.00
2022-10-29T03:58:48.917Z,7.60
2022-10-29T04:01:18.160Z,7.83
2022-10-29T04:03:44.695Z,9.00
2022-10-29T04:06:11.139Z,9.00
2022-10-29T04:08:39.388Z,8.20
2022-10-29T04:13:59.730Z,7.00
2022-10-29T04:16:28.043Z,9.60
2022-10-29T04:18:54.449Z,8.00
2022-10-29T04:29:54.470Z,8.40
2022-10-29T04:32:20.974Z,8.50
2022-10-29T04:34:48.193Z,8.00
2022-10-29T04:37:16.559Z,8.00
2022-10-29T04:39:45.737Z,7.33
2022-10-29T04:44:56.426Z,8.00
2022-10-29T04:47:22.854Z,7.00
2022-10-29T04:49:49.265Z,8.00
2022-10-29T04:52:15.707Z,7.00
2022-10-29T04:54:42.133Z,7.50
2022-10-29T04:59:56.156Z,8.00
2022-10-29T05:02:22.614Z,8.00
2022-10-29T05:04:50.837Z,8.00
2022-10-29T05:07:17.163Z,6.00
2022-10-29T05:09:43.583Z,6.00
2022-10-29T05:15:03.878Z,8.00
2022-10-29T05:17:30.323Z,7.00
2022-10-29T05:19:57.515Z,6.00
2022-10-29T05:22:23.957Z,6.33
2022-10-29T05:24:51.178Z,5.75
2022-10-29T05:30:04.450Z,7.67
2022-10-29T05:32:31.004Z,8.00
2022-10-29T05:34:57.387Z,7.00
2022-10-29T05:37:23.773Z,7.00
2022-10-29T05:39:50.174Z,8.00
2022-10-29T05:45:03.400Z,7.00
2022-10-29T05:47:32.504Z,6.50
2022-10-29T05:49:58.896Z,7.00
2022-10-29T05:52:25.310Z,7.00
2022-10-29T05:54:53.576Z,8.00
2022-10-29T06:00:14.362Z,9.00
2022-10-29T06:02:40.899Z,9.00
2022-10-29T06:05:08.234Z,10.00
2022-10-29T06:07:34.639Z,9.00
2022-10-29T06:10:01.077Z,7.50
2022-10-29T06:15:24.196Z,7.00
2022-10-29T06:17:50.672Z,7.50
2022-10-29T06:20:17.126Z,7.00
2022-10-29T06:22:45.452Z,9.40
2022-10-29T06:25:12.976Z,8.33
2022-10-29T06:30:23.962Z,9.00
2022-10-29T06:32:52.499Z,9.20
2022-10-29T06:35:19.022Z,8.00
2022-10-29T06:37:48.932Z,9.00
2022-10-29T06:40:15.350Z,8.50
2022-10-29T06:45:30.298Z,10.43
2022-10-29T06:47:59.902Z,7.33
2022-10-29T06:50:28.529Z,8.80
2022-10-29T06:52:58.420Z,7.17
2022-10-29T06:55:25.146Z,7.00
2022-10-29T07:00:47.752Z,7.00
2022-10-29T07:03:14.790Z,7.00
2022-10-29T07:05:44.221Z,6.33
2022-10-29T07:08:11.759Z,7.50
2022-10-29T07:10:40.936Z,7.83
2022-10-29T07:16:07.037Z,7.00
2022-10-29T07:18:33.497Z,8.00
2022-10-29T07:20:59.966Z,7.00
2022-10-29T07:23:26.416Z,8.00
2022-10-29T07:25:54.688Z,8.80
2022-10-29T07:28:21.142Z,8.50
2022-10-29T07:30:47.556Z,11.50
2022-10-29T07:33:13.982Z,11.00
2022-10-29T07:35:41.226Z,12.67
2022-10-29T07:38:10.857Z,11.50
2022-10-29T07:40:38.584Z,11.33
2022-10-29T07:43:05.943Z,11.67
2022-10-29T07:45:32.375Z,9.50
2022-10-29T07:48:02.715Z,12.33
2022-10-29T07:50:29.797Z,13.00
2022-10-29T07:52:56.491Z,11.00
2022-10-29T07:55:23.139Z,11.50
2022-10-29T07:57:50.549Z,11.33
2022-10-29T08:00:17.807Z,12.67
2022-10-29T08:02:45.085Z,12.33
2022-10-29T08:05:12.331Z,11.33
2022-10-29T08:07:38.755Z,12.50
2022-10-29T08:10:06.025Z,10.67
2022-10-29T08:12:33.260Z,10.67
2022-10-29T08:15:00.489Z,9.67
2022-10-29T08:17:26.897Z,10.00
2022-10-29T08:19:53.348Z,11.00
2022-10-29T08:22:19.809Z,10.00
2022-10-29T08:24:46.401Z,10.50
2022-10-29T08:27:12.804Z,9.50
2022-10-29T08:29:39.280Z,9.00
2022-10-29T08:32:05.778Z,9.00
2022-10-29T08:34:32.228Z,9.00
2022-10-29T08:36:58.666Z,11.50
2022-10-29T08:39:25.913Z,11.00
2022-10-29T08:41:52.302Z,11.00
2022-10-29T08:44:19.596Z,11.33
2022-10-29T08:46:46.003Z,11.00
2022-10-29T08:49:13.249Z,8.00
2022-10-29T08:51:39.827Z,11.00
2022-10-29T08:54:29.886Z,9.40
2022-10-29T08:56:54.559Z,9.00
2022-10-29T08:59:21.050Z,9.00
2022-10-29T09:01:47.497Z,8.00
2022-10-29T09:04:14.005Z,10.00
2022-10-29T09:06:41.237Z,11.00
2022-10-29T09:09:10.475Z,9.33
2022-10-29T09:11:37.747Z,10.67
2022-10-29T09:14:05.017Z,10.00
2022-10-29T09:16:31.446Z,8.50
2022-10-29T09:18:59.776Z,9.80
2022-10-29T09:21:26.977Z,11.00
2022-10-29T09:23:53.455Z,9.00
2022-10-29T09:26:19.954Z,9.00
2022-10-29T09:28:46.437Z,8.00
2022-10-29T09:31:12.948Z,8.50
2022-10-29T09:33:39.328Z,7.00
2022-10-29T09:36:05.758Z,7.00
2022-10-29T09:38:32.248Z,8.50
2022-10-29T09:40:58.646Z,9.50
2022-10-29T09:43:25.119Z,9.00
2022-10-29T09:45:54.263Z,6.17
2022-10-29T09:48:22.547Z,9.40
2022-10-29T09:50:49.752Z,9.00
2022-10-29T09:53:18.033Z,9.20
2022-10-29T09:55:46.304Z,9.40
2022-10-29T09:58:13.536Z,9.00
2022-10-29T10:00:39.967Z,9.50
2022-10-29T10:03:06.490Z,8.50
2022-10-29T10:05:33.760Z,9.33
2022-10-29T10:08:00.324Z,9.50
2022-10-29T10:10:26.807Z,10.00
2022-10-29T10:12:53.341Z,9.50
2022-10-29T10:15:21.617Z,8.20
2022-10-29T10:17:48.827Z,8.67
2022-10-29T10:20:15.216Z,9.00
2022-10-29T10:22:43.515Z,10.00
2022-10-29T10:25:11.829Z,8.80
2022-10-29T10:27:38.304Z,8.00
2022-10-29T10:30:06.602Z,10.00
2022-10-29T10:32:33.852Z,12.00
2022-10-29T10:35:01.213Z,20.50
2022-10-29T10:37:27.679Z,20.00
2022-10-29T10:39:54.268Z,29.00
2022-10-29T10:42:21.708Z,27.67
2022-10-29T10:44:49.152Z,28.00
2022-10-29T10:47:15.589Z,24.50
2022-10-29T10:49:42.980Z,24.00
2022-10-29T10:52:09.455Z,22.00
2022-10-29T10:54:35.976Z,20.50
2022-10-29T10:57:03.432Z,21.00
2022-10-29T10:59:29.889Z,21.00
2022-10-29T11:01:57.343Z,20.00
2022-10-29T11:04:24.805Z,19.50
2022-10-29T11:06:51.246Z,16.50
2022-10-29T11:09:18.631Z,17.00
2022-10-29T11:11:45.087Z,15.00
2022-10-29T11:14:12.502Z,14.50
2022-10-29T11:16:39.882Z,16.33
2022-10-29T11:19:07.280Z,14.33
2022-10-29T11:21:34.623Z,14.00
2022-10-29T11:24:02.033Z,12.33
2022-10-29T11:26:29.386Z,13.00
2022-10-29T11:28:56.728Z,13.33
2022-10-29T11:31:24.060Z,11.33
2022-10-29T11:33:51.405Z,13.00
2022-10-29T11:36:18.786Z,14.67
2022-10-29T11:38:46.101Z,12.00
2022-10-29T11:41:13.496Z,13.67
2022-10-29T11:43:40.829Z,11.00
2022-10-29T11:46:07.238Z,10.50
2022-10-29T11:48:33.699Z,10.50
2022-10-29T11:51:01.048Z,14.00
2022-10-29T11:53:28.375Z,13.00
2022-10-29T11:55:55.723Z,12.00
2022-10-29T11:58:23.098Z,13.33
2022-10-29T12:00:49.525Z,11.00
2022-10-29T12:03:16.077Z,13.50
2022-10-29T12:05:42.538Z,11.50
2022-10-29T12:08:09.986Z,11.00
2022-10-29T12:10:37.314Z,11.33
2022-10-29T12:13:03.763Z,13.50
2022-10-29T12:15:30.181Z,12.50
2022-10-29T12:17:57.861Z,14.00
2022-10-29T12:20:27.673Z,15.00
2022-10-29T12:23:00.741Z,12.33
2022-10-29T12:25:31.700Z,14.50
2022-10-29T12:27:58.125Z,14.00
2022-10-29T12:30:25.477Z,14.00
2022-10-29T12:32:52.847Z,13.00
2022-10-29T12:35:20.173Z,11.67
2022-10-29T12:37:46.601Z,12.00
2022-10-29T12:40:13.024Z,12.00
2022-10-29T12:42:40.259Z,11.00
2022-10-29T12:45:07.548Z,12.00
2022-10-29T12:47:34.776Z,9.00
2022-10-29T12:50:01.197Z,12.00
2022-10-29T12:52:28.548Z,13.67
2022-10-29T12:54:54.979Z,12.50
2022-10-29T12:57:21.393Z,14.00
2022-10-29T12:59:48.777Z,13.67
2022-10-29T13:02:16.223Z,14.00
2022-10-29T13:04:43.684Z,13.00
2022-10-29T13:07:11.007Z,11.33
2022-10-29T13:09:38.441Z,13.00
2022-10-29T13:12:04.897Z,11.00
2022-10-29T13:14:32.194Z,11.67
2022-10-29T13:16:58.579Z,12.00
2022-10-29T13:19:24.977Z,10.00
2022-10-29T13:21:51.409Z,13.00
2022-10-29T13:24:18.732Z,11.67
2022-10-29T13:26:46.046Z,11.67
2022-10-29T13:29:12.457Z,12.50
2022-10-29T13:31:38.844Z,11.50
2022-10-29T13:34:05.272Z,11.50
2022-10-29T13:36:32.568Z,12.33
2022-10-29T13:39:06.828Z,12.50
2022-10-29T13:41:34.905Z,11.67
2022-10-29T13:44:01.282Z,10.50
2022-10-29T13:46:27.720Z,13.50
2022-10-29T13:48:54.127Z,12.50
2022-10-29T13:51:21.572Z,13.67
2022-10-29T13:53:48.075Z,14.50
2022-10-29T13:56:14.539Z,13.50
2022-10-29T13:58:41.770Z,11.67
2022-10-29T14:01:09.180Z,12.67
2022-10-29T14:03:35.642Z,13.00
2022-10-29T14:06:02.918Z,12.67
2022-10-29T14:08:30.279Z,12.33
2022-10-29T14:10:57.542Z,12.00
2022-10-29T14:13:24.976Z,12.33
2022-10-29T14:15:52.233Z,12.00
2022-10-29T14:18:19.628Z,11.67
2022-10-29T14:20:46.022Z,11.00
2022-10-29T14:23:13.319Z,11.00
2022-10-29T14:25:39.728Z,12.00
2022-10-29T14:28:07.270Z,12.33
2022-10-29T14:30:34.616Z,12.33
2022-10-29T14:33:01.036Z,12.50
2022-10-29T14:35:27.713Z,11.50
2022-10-29T14:37:55.387Z,11.00
2022-10-29T14:40:22.833Z,11.00
2022-10-29T14:42:49.249Z,12.00
2022-10-29T14:45:15.652Z,11.50
2022-10-29T14:47:42.962Z,13.33
2022-10-29T14:50:10.235Z,13.00
2022-10-29T14:52:37.550Z,12.00
2022-10-29T14:55:03.958Z,12.50
2022-10-29T14:57:31.349Z,12.33
2022-10-29T14:59:58.580Z,11.67
2022-10-29T15:02:38.261Z,13.00
2022-10-29T15:05:07.651Z,12.67
2022-10-29T15:07:34.245Z,11.50
2022-10-29T15:10:01.566Z,11.00
2022-10-29T15:12:27.981Z,11.00
2022-10-29T15:14:55.230Z,12.33
2022-10-29T15:17:22.466Z,10.67
2022-10-29T15:19:49.774Z,13.00
2022-10-29T15:22:16.189Z,11.00
2022-10-29T15:24:43.474Z,12.00
2022-10-29T15:27:09.881Z,11.00
2022-10-29T15:29:41.999Z,12.00
2022-10-29T15:32:09.383Z,12.50
2022-10-29T15:34:36.723Z,12.00
2022-10-29T15:37:03.135Z,11.50
2022-10-29T15:39:29.629Z,11.00
2022-10-29T15:41:56.975Z,12.67
2022-10-29T15:44:24.322Z,11.33
2022-10-29T15:46:50.753Z,13.50
2022-10-29T15:49:17.190Z,14.50
2022-10-29T15:51:43.637Z,15.00
2022-10-29T15:54:10.080Z,13.00
2022-10-29T15:56:36.505Z,15.00
2022-10-29T15:59:02.952Z,15.50
2022-10-29T16:01:30.420Z,13.67
2022-10-29T16:03:57.898Z,15.00
2022-10-29T16:06:25.291Z,16.33
2022-10-29T16:08:51.831Z,15.50
2022-10-29T16:11:18.302Z,13.00
2022-10-29T16:13:44.733Z,15.00
2022-10-29T16:16:12.149Z,16.50
2022-10-29T16:18:39.521Z,13.67
2022-10-29T16:21:05.973Z,17.00
2022-10-29T16:23:32.424Z,15.00
2022-10-29T16:25:58.881Z,15.00
2022-10-29T16:28:25.326Z,15.00
2022-10-29T16:30:51.764Z,17.00
2022-10-29T16:33:18.269Z,15.50
2022-10-29T16:35:45.640Z,15.67
2022-10-29T16:38:12.082Z,17.00
2022-10-29T16:40:38.556Z,18.00
2022-10-29T16:43:05.941Z,14.67
2022-10-29T16:45:32.414Z,17.00
2022-10-29T16:47:59.361Z,17.50
2022-10-29T16:50:26.227Z,17.00
2022-10-29T16:52:52.678Z,16.00
2022-10-29T16:55:20.061Z,15.00
2022-10-29T16:57:46.539Z,16.00
2022-10-29T17:00:13.913Z,16.00
2022-10-29T17:02:40.367Z,16.50
2022-10-29T17:05:06.841Z,18.50
2022-10-29T17:07:33.310Z,16.00
2022-10-29T17:10:00.699Z,15.33
2022-10-29T17:12:27.202Z,16.50
2022-10-29T17:14:53.670Z,17.00
2022-10-29T17:17:21.082Z,17.00
2022-10-29T17:19:47.544Z,16.00
2022-10-29T17:22:14.925Z,15.50
2022-10-29T17:24:41.384Z,14.50
2022-10-29T17:27:07.845Z,14.00
2022-10-29T17:29:36.445Z,15.00
2022-10-29T17:34:36.308Z,15.00
2022-10-29T17:37:03.730Z,16.67
2022-10-29T17:39:31.152Z,14.00
2022-10-29T17:41:58.498Z,13.67
2022-10-29T17:44:24.931Z,14.50
2022-10-29T17:46:51.372Z,12.50
2022-10-29T17:49:17.829Z,13.00
2022-10-29T17:51:44.283Z,15.00
2022-10-29T17:54:11.671Z,14.67
2022-10-29T17:56:39.057Z,14.00
2022-10-29T17:59:06.441Z,16.00
2022-10-29T18:01:34.048Z,15.00
2022-10-29T18:04:00.641Z,14.50
2022-10-29T18:06:27.104Z,15.00
2022-10-29T18:08:53.534Z,14.00
2022-10-29T18:11:19.945Z,14.00
2022-10-29T18:13:47.464Z,16.33
2022-10-29T18:16:13.904Z,14.50
2022-10-29T18:18:54.419Z,14.00
2022-10-29T18:21:27.749Z,16.67
2022-10-29T18:23:54.205Z,19.00
2022-10-29T18:26:21.595Z,18.00
2022-10-29T18:28:48.970Z,19.00
2022-10-29T18:31:16.401Z,18.50
2022-10-29T18:33:43.761Z,21.00
2022-10-29T18:36:10.224Z,18.00
2022-10-29T18:38:36.699Z,20.00
2022-10-29T18:41:04.091Z,19.00
2022-10-29T18:43:30.616Z,16.50
2022-10-29T18:45:57.100Z,19.50
2022-10-29T18:48:23.672Z,17.00
2022-10-29T18:50:50.248Z,20.00
2022-10-29T18:53:16.711Z,17.00
2022-10-29T18:55:43.185Z,19.50
2022-10-29T18:58:09.640Z,17.00
2022-10-29T19:00:36.124Z,16.50
2022-10-29T19:03:02.579Z,19.00
2022-10-29T19:05:29.915Z,14.00
2022-10-29T19:07:57.653Z,14.33
2022-10-29T19:10:24.224Z,11.50
2022-10-29T19:12:50.668Z,13.00
2022-10-29T19:15:17.089Z,13.00
2022-10-29T19:17:44.563Z,12.33
2022-10-29T19:20:11.808Z,11.67
2022-10-29T19:22:38.219Z,13.00
2022-10-29T19:25:04.649Z,13.00
2022-10-29T19:27:31.968Z,10.67
2022-10-29T19:29:59.257Z,10.33
2022-10-29T19:32:27.551Z,10.00
2022-10-29T19:34:54.852Z,10.67
2022-10-29T19:37:22.100Z,8.25
2022-10-29T19:39:49.430Z,10.00
2022-10-29T19:42:15.956Z,11.50
2022-10-29T19:44:42.350Z,11.00
2022-10-29T19:47:08.761Z,12.00
2022-10-29T19:49:36.053Z,10.00
2022-10-29T19:52:04.342Z,9.60
2022-10-29T19:54:32.644Z,10.20
2022-10-29T19:56:59.873Z,10.00
2022-10-29T19:59:27.106Z,8.33
2022-10-29T20:01:53.636Z,8.00
2022-10-29T20:04:21.075Z,11.33
2022-10-29T20:06:47.465Z,11.50
2022-10-29T20:09:14.815Z,15.50
2022-10-29T20:11:41.218Z,10.00
2022-10-29T20:14:07.650Z,10.00
2022-10-29T20:16:34.063Z,11.50
2022-10-29T20:19:01.332Z,11.00
2022-10-29T20:21:28.612Z,11.67
2022-10-29T20:23:55.042Z,10.00
2022-10-29T20:26:22.268Z,11.00
2022-10-29T20:28:48.896Z,11.00
2022-10-29T20:31:16.182Z,10.33
2022-10-29T20:33:42.683Z,11.00
2022-10-29T20:36:09.155Z,6.00
2022-10-29T20:38:37.483Z,8.80
2022-10-29T20:41:04.737Z,9.67
2022-10-29T20:43:33.079Z,9.80
2022-10-29T20:46:01.440Z,10.60
2022-10-29T20:48:28.665Z,10.67
2022-10-29T20:50:55.176Z,7.00
2022-10-29T20:53:21.671Z,10.00
2022-10-29T20:55:50.815Z,8.00
2022-10-29T20:58:18.033Z,11.00
2022-10-29T21:00:45.244Z,10.33
2022-10-29T21:03:12.517Z,10.33
2022-10-29T21:05:39.733Z,9.33
2022-10-29T21:08:08.047Z,9.60
2022-10-29T21:10:34.456Z,10.50
2022-10-29T21:13:03.683Z,9.50
2022-10-29T21:15:30.900Z,10.00
2022-10-29T21:17:57.365Z,8.00
2022-10-29T21:20:24.600Z,9.67
2022-10-29T21:22:50.974Z,9.00
2022-10-29T21:25:17.374Z,9.00
2022-10-29T21:27:43.851Z,10.00
2022-10-29T21:30:10.303Z,12.50
2022-10-29T21:32:37.544Z,10.00
2022-10-29T21:35:03.960Z,10.00
2022-10-29T21:37:30.389Z,11.00
2022-10-29T21:39:59.056Z,11.00
2022-10-29T21:42:29.017Z,11.00
2022-10-29T21:44:56.232Z,9.67
2022-10-29T21:47:22.673Z,12.00
2022-10-29T21:49:51.861Z,11.67
2022-10-29T21:52:18.522Z,14.00
2022-10-29T21:54:44.931Z,12.00
2022-10-29T21:57:11.416Z,7.00
2022-10-29T21:59:38.726Z,13.00
2022-10-29T22:02:06.125Z,10.33
2022-10-29T22:04:32.642Z,12.00
2022-10-29T22:06:59.054Z,11.50
2022-10-29T22:09:25.495Z,13.00
2022-10-29T22:11:51.905Z,12.00
2022-10-29T22:14:19.143Z,12.33
2022-10-29T22:16:46.423Z,11.00
2022-10-29T22:19:12.938Z,12.50
2022-10-29T22:21:39.354Z,12.50
2022-10-29T22:24:06.696Z,12.67
2022-10-29T22:26:34.021Z,12.67
2022-10-29T22:29:01.361Z,12.67
2022-10-29T22:31:28.742Z,13.00
2022-10-29T22:33:56.108Z,15.00
2022-10-29T22:36:23.477Z,13.00
2022-10-29T22:38:50.830Z,13.33
2022-10-29T22:41:18.158Z,13.67
2022-10-29T22:43:44.576Z,14.50
2022-10-29T22:46:10.985Z,14.50
2022-10-29T22:48:37.418Z,14.00
2022-10-29T22:51:03.846Z,11.50
2022-10-29T22:53:31.209Z,14.67
2022-10-29T22:55:58.615Z,13.67
2022-10-29T22:58:26.010Z,15.00
2022-10-29T23:00:53.417Z,13.33
2022-10-29T23:03:20.849Z,13.67
2022-10-29T23:05:47.290Z,14.00
2022-10-29T23:08:13.734Z,14.00
2022-10-29T23:10:40.178Z,14.00
2022-10-29T23:13:06.654Z,12.00
2022-10-29T23:15:34.000Z,11.67
2022-10-29T23:18:00.691Z,14.00
2022-10-29T23:20:27.202Z,13.00
2022-10-29T23:22:54.666Z,13.67
2022-10-29T23:25:22.172Z,11.33
2022-10-29T23:27:48.601Z,14.00
2022-10-29T23:30:15.061Z,13.00
2022-10-29T23:32:42.411Z,12.33
2022-10-29T23:35:08.861Z,11.00
2022-10-29T23:37:35.275Z,13.50
2022-10-29T23:40:02.614Z,13.00
2022-10-29T23:42:29.318Z,14.00
2022-10-29T23:44:56.709Z,13.33
2022-10-29T23:47:23.143Z,14.00
2022-10-29T23:49:50.428Z,12.33
2022-10-29T23:52:17.747Z,12.67
2022-10-29T23:54:44.128Z,13.50
2022-10-29T23:57:10.554Z,9.00
2022-10-29T23:59:36.990Z,15.00
